»·PEaware :: N7294S KMHV-KBFL

N7294S :: KMHV-KBFL

FLIGHT INFORMATION

Flight Status: Arrived
Operator: Privately registered:
United States
More flights under this callsign
Pilot: Vladimir K. (41412)
Aircraft: PIPER PA-24 COMMANCHE
(PA24)
More flights by this aircraft type
Origin: KMHV Mojave
United States
Destination: KBFL Meadows
United States
More flights between these airports :: More routes between these airports
Route:
File this flight plan on PilotEdge
Remarks:
Altitude:
(Current/Filed)
8,500ft
Speed:
(Current/Filed)
150kts
Departed: 23-Jul-23 09:18 AM
Arrived: 23-Jul-23 09:46 AM
Distance/Time
Traveled:
50nm/0:28
Distance/Time
To Go:
Arrived

Flight Plot

Page will automatically refresh every two minutes.

Flight plan parsing failed; only flown route is shown


Map Options




Map Legend


Flown Route
Filed Route
Departure Airport
Arrival Airport
Navaid (VOR, NDB)
Fix

Horizontal Profiles

Position Reports

Time Latitude Longitude Heading Altitude Ground
Speed
23-Jul-23 08:54 35.057022 -118.152705 271 2751ft 0kts
23-Jul-23 08:55 35.057022 -118.152705 271 2751ft 0kts
23-Jul-23 08:56 35.057022 -118.152705 271 2751ft 0kts
23-Jul-23 08:57 35.057022 -118.152705 271 2751ft 0kts
23-Jul-23 08:58 35.057022 -118.152705 271 2751ft 0kts
23-Jul-23 08:59 35.057022 -118.152705 271 2751ft 0kts
23-Jul-23 09:00 35.057022 -118.152705 271 2751ft 0kts
23-Jul-23 09:01 35.057022 -118.152705 271 2751ft 0kts
23-Jul-23 09:02 35.057022 -118.152705 271 2751ft 0kts
23-Jul-23 09:03 35.057022 -118.152705 271 2751ft 0kts
23-Jul-23 09:04 35.057022 -118.152705 271 2751ft 0kts
23-Jul-23 09:05 35.057022 -118.152706 271 2751ft 0kts
23-Jul-23 09:06 35.057022 -118.152706 271 2751ft 0kts
23-Jul-23 09:07 35.057022 -118.152706 271 2751ft 0kts
23-Jul-23 09:08 35.057022 -118.152706 271 2751ft 0kts
23-Jul-23 09:09 35.057022 -118.152706 271 2751ft 0kts
23-Jul-23 09:10 35.057022 -118.152706 271 2751ft 0kts
23-Jul-23 09:11 35.057022 -118.152706 271 2751ft 0kts
23-Jul-23 09:12 35.057088 -118.152830 331 2751ft 3kts
23-Jul-23 09:13 35.057619 -118.149995 90 2754ft 8kts
23-Jul-23 09:14 35.057607 -118.145644 90 2753ft 10kts
23-Jul-23 09:15 35.057628 -118.142944 72 2742ft 9kts
23-Jul-23 09:16 35.058989 -118.142600 333 2740ft 7kts
23-Jul-23 09:17 35.059180 -118.157822 271 2900ft 82kts
23-Jul-23 09:18 35.060130 -118.186426 266 3462ft 84kts
23-Jul-23 09:19 35.059040 -118.215910 265 3977ft 92kts
23-Jul-23 09:20 35.055650 -118.246433 249 4710ft 91kts
23-Jul-23 09:21 35.048356 -118.276029 256 5433ft 92kts
23-Jul-23 09:22 35.050939 -118.307531 288 6122ft 96kts
23-Jul-23 09:23 35.065828 -118.335064 307 7002ft 103kts
23-Jul-23 09:24 35.086175 -118.360756 311 7817ft 105kts
23-Jul-23 09:25 35.098946 -118.392267 289 8565ft 107kts
23-Jul-23 09:26 35.118568 -118.429313 310 8634ft 149kts
23-Jul-23 09:27 35.147733 -118.467460 314 8647ft 158kts
23-Jul-23 09:28 35.181930 -118.500501 325 8756ft 159kts
23-Jul-23 09:29 35.213694 -118.540543 309 8631ft 163kts
23-Jul-23 09:30 35.245608 -118.580775 312 8515ft 165kts
23-Jul-23 09:31 35.267620 -118.628502 273 8346ft 167kts
23-Jul-23 09:32 35.274350 -118.682434 281 8009ft 161kts
23-Jul-23 09:33 35.291181 -118.733204 288 7448ft 162kts
23-Jul-23 09:34 35.310951 -118.782563 290 7011ft 160kts
23-Jul-23 09:35 35.330411 -118.831390 298 6451ft 164kts
23-Jul-23 09:36 35.351626 -118.880733 291 5451ft 157kts
23-Jul-23 09:37 35.371341 -118.927831 298 4453ft 155kts
23-Jul-23 09:38 35.405665 -118.937220 48 3866ft 141kts
23-Jul-23 09:39 35.392068 -118.911299 215 3482ft 141kts
23-Jul-23 09:40 35.367238 -118.947567 235 3023ft 135kts
23-Jul-23 09:41 35.373503 -118.984984 326 2406ft 130kts
23-Jul-23 09:42 35.396697 -119.011031 312 1984ft 100kts
23-Jul-23 09:43 35.415040 -119.033634 314 1254ft 90kts
23-Jul-23 09:44 35.431730 -119.053630 312 508ft 74kts
23-Jul-23 09:45 35.438239 -119.059869 73 492ft 0kts
23-Jul-23 09:46 35.437798 -119.058711 137 493ft 10kts
23-Jul-23 09:47 35.435175 -119.055539 136 489ft 8kts
23-Jul-23 09:48 35.435205 -119.053665 42 486ft 6kts
23-Jul-23 09:49 35.435788 -119.052755 298 488ft 3kts
23-Jul-23 09:50 35.435656 -119.053074 176 490ft 0kts
23-Jul-23 09:51 35.435656 -119.053074 176 490ft 0kts
23-Jul-23 09:52 35.435656 -119.053074 176 490ft 0kts
23-Jul-23 09:53 35.435656 -119.053074 176 490ft 0kts

Navigation Log

Ident Type
Flight plan parsing failed, navigation log unavailable